createdAt,value
2022-10-05T00:00:50.841Z,12.40
2022-10-05T00:03:17.612Z,11.63
2022-10-05T00:05:46.331Z,13.35
2022-10-05T00:08:14.653Z,12.55
2022-10-05T00:10:42.356Z,13.35
2022-10-05T00:13:24.011Z,14.13
2022-10-05T00:15:52.845Z,12.85
2022-10-05T00:18:21.215Z,11.02
2022-10-05T00:20:49.047Z,12.48
2022-10-05T00:23:26.439Z,20.20
2022-10-05T00:25:53.119Z,14.20
2022-10-05T00:28:30.020Z,14.55
2022-10-05T00:31:00.646Z,18.25
2022-10-05T00:33:28.174Z,11.77
2022-10-05T00:35:55.593Z,12.35
2022-10-05T00:38:22.718Z,11.38
2022-10-05T00:41:11.535Z,13.88
2022-10-05T00:44:07.504Z,15.05
2022-10-05T00:46:49.315Z,11.73
2022-10-05T00:51:49.766Z,16.00
2022-10-05T00:54:45.154Z,13.15
2022-10-05T00:57:33.844Z,13.52
2022-10-05T01:00:13.374Z,13.60
2022-10-05T01:03:07.486Z,14.57
2022-10-05T01:05:51.697Z,16.02
2022-10-05T01:08:42.891Z,13.80
2022-10-05T01:11:24.819Z,13.27
2022-10-05T01:13:55.613Z,14.70
2022-10-05T01:16:35.988Z,14.45
2022-10-05T01:19:05.667Z,13.82
2022-10-05T01:21:49.565Z,14.88
2022-10-05T01:24:53.317Z,18.17
2022-10-05T01:27:31.815Z,13.38
2022-10-05T01:30:20.214Z,13.25
2022-10-05T01:33:13.994Z,16.98
2022-10-05T01:35:43.664Z,14.50
2022-10-05T01:38:39.166Z,18.08
2022-10-05T01:41:11.911Z,15.65
2022-10-05T01:44:11.664Z,15.35
2022-10-05T01:47:09.798Z,15.43
2022-10-05T01:49:50.649Z,17.67
2022-10-05T01:52:54.081Z,16.27
2022-10-05T01:56:10.136Z,13.60
2022-10-05T01:59:01.656Z,16.83
2022-10-05T02:01:31.147Z,20.80
2022-10-05T02:04:29.599Z,16.60
2022-10-05T02:09:41.639Z,17.25
2022-10-05T02:12:18.734Z,17.77
2022-10-05T02:14:50.665Z,15.15
2022-10-05T02:17:21.979Z,15.90
2022-10-05T02:19:59.716Z,24.17
2022-10-05T02:22:36.884Z,18.00
2022-10-05T02:25:09.644Z,18.05
2022-10-05T02:27:44.356Z,17.30
2022-10-05T02:30:16.380Z,17.23
2022-10-05T02:32:53.742Z,15.73
2022-10-05T02:35:22.360Z,17.15
2022-10-05T02:37:57.320Z,16.85
2022-10-05T02:40:45.508Z,17.27
2022-10-05T02:43:32.625Z,13.93
2022-10-05T02:46:33.560Z,14.10
2022-10-05T02:49:03.419Z,11.57
2022-10-05T02:51:42.956Z,13.85
2022-10-05T02:54:34.000Z,13.90
2022-10-05T02:57:28.518Z,16.00
2022-10-05T03:00:19.120Z,14.82
2022-10-05T03:02:52.518Z,17.42
2022-10-05T03:05:31.926Z,15.38
2022-10-05T03:08:05.396Z,15.70
2022-10-05T03:10:50.168Z,14.52
2022-10-05T03:13:41.579Z,13.13
2022-10-05T03:16:36.482Z,17.95
2022-10-05T03:19:27.826Z,14.60
2022-10-05T03:22:27.069Z,11.48
2022-10-05T03:25:26.536Z,13.32
2022-10-05T03:28:13.346Z,12.57
2022-10-05T03:31:23.436Z,11.43
2022-10-05T03:33:56.406Z,13.88
2022-10-05T03:36:47.729Z,14.63
2022-10-05T03:39:26.512Z,12.15
2022-10-05T03:42:20.073Z,14.20
2022-10-05T03:44:56.841Z,14.93
2022-10-05T03:47:52.202Z,15.45
2022-10-05T03:50:40.682Z,13.30
2022-10-05T03:53:24.883Z,17.77
2022-10-05T03:56:10.509Z,14.98
2022-10-05T03:59:00.694Z,11.55
2022-10-05T04:01:38.973Z,15.50
2022-10-05T04:04:09.645Z,13.82
2022-10-05T04:06:45.283Z,12.05
2022-10-05T04:09:30.127Z,12.40
2022-10-05T04:12:15.007Z,12.20
2022-10-05T04:14:46.943Z,13.50
2022-10-05T04:17:17.759Z,12.40
2022-10-05T04:19:51.182Z,14.27
2022-10-05T04:22:32.055Z,13.52
2022-10-05T04:25:23.158Z,13.97
2022-10-05T04:28:04.381Z,13.07
2022-10-05T04:30:34.638Z,13.88
2022-10-05T04:33:02.022Z,13.10
2022-10-05T04:35:41.223Z,15.85
2022-10-05T04:38:37.447Z,15.75
2022-10-05T04:41:55.473Z,17.40
2022-10-05T04:44:42.287Z,14.15
2022-10-05T04:47:29.578Z,18.38
2022-10-05T04:50:17.790Z,12.70
2022-10-05T04:53:20.093Z,14.18
2022-10-05T04:56:03.083Z,13.27
2022-10-05T04:58:55.289Z,16.63
2022-10-05T05:01:35.941Z,13.27
2022-10-05T05:04:26.913Z,11.32
2022-10-05T05:07:02.676Z,17.00
2022-10-05T05:09:56.050Z,13.77
2022-10-05T05:12:28.978Z,18.38
2022-10-05T05:15:22.283Z,14.90
2022-10-05T05:18:41.986Z,12.13
2022-10-05T05:21:37.903Z,13.90
2022-10-05T05:24:49.033Z,12.00
2022-10-05T05:27:38.893Z,11.98
2022-10-05T05:30:23.008Z,13.05
2022-10-05T05:33:09.471Z,14.80
2022-10-05T05:35:39.419Z,12.02
2022-10-05T05:38:14.154Z,11.00
2022-10-05T05:40:56.732Z,14.70
2022-10-05T05:43:27.593Z,12.48
2022-10-05T05:46:12.105Z,10.98
2022-10-05T05:48:42.436Z,14.05
2022-10-05T05:51:55.890Z,14.50
2022-10-05T05:54:32.948Z,12.05
2022-10-05T05:57:15.266Z,11.30
2022-10-05T06:02:22.388Z,11.45
2022-10-05T06:04:57.962Z,10.65
2022-10-05T06:07:30.818Z,15.35
2022-10-05T06:10:15.002Z,12.60
2022-10-05T06:12:52.551Z,14.52
2022-10-05T06:15:27.898Z,11.00
2022-10-05T06:17:57.832Z,13.40
2022-10-05T06:20:46.991Z,11.13
2022-10-05T06:23:20.449Z,10.63
2022-10-05T06:26:10.394Z,11.65
2022-10-05T06:28:38.417Z,13.20
2022-10-05T06:31:32.298Z,11.32
2022-10-05T06:34:27.300Z,10.13
2022-10-05T06:37:04.533Z,9.27
2022-10-05T06:40:01.109Z,10.05
2022-10-05T06:42:49.302Z,10.48
2022-10-05T06:46:07.167Z,9.35
2022-10-05T06:49:19.537Z,8.32
2022-10-05T06:52:14.889Z,8.18
2022-10-05T06:54:55.951Z,10.45
2022-10-05T06:58:05.718Z,9.15
2022-10-05T07:01:01.855Z,11.63
2022-10-05T07:04:03.040Z,9.85
2022-10-05T07:06:42.082Z,13.57
2022-10-05T07:09:14.642Z,9.98
2022-10-05T07:12:07.549Z,8.55
2022-10-05T07:14:59.924Z,7.63
2022-10-05T07:17:45.445Z,10.75
2022-10-05T07:20:19.740Z,7.90
2022-10-05T07:23:02.754Z,12.02
2022-10-05T07:25:36.497Z,11.02
2022-10-05T07:28:09.240Z,10.48
2022-10-05T07:30:57.617Z,9.13
2022-10-05T07:33:45.802Z,7.72
2022-10-05T07:36:55.465Z,11.33
2022-10-05T07:40:01.950Z,12.95
2022-10-05T07:43:04.983Z,8.40
2022-10-05T07:45:46.664Z,10.30
2022-10-05T07:48:32.987Z,7.53
2022-10-05T07:51:06.433Z,7.07
2022-10-05T07:53:39.030Z,14.07
2022-10-05T07:56:25.627Z,6.20
2022-10-05T07:59:01.640Z,14.45
2022-10-05T08:01:34.240Z,9.10
2022-10-05T08:04:11.030Z,9.57
2022-10-05T08:06:38.034Z,8.05
2022-10-05T08:09:28.762Z,6.80
2022-10-05T08:12:01.264Z,6.78
2022-10-05T08:15:05.503Z,7.18
2022-10-05T08:17:44.091Z,11.40
2022-10-05T08:20:44.609Z,5.85
2022-10-05T08:23:25.889Z,11.73
2022-10-05T08:26:17.608Z,6.40
2022-10-05T08:29:05.003Z,9.02
2022-10-05T08:31:41.733Z,6.47
2022-10-05T08:34:23.465Z,6.28
2022-10-05T08:39:30.772Z,7.72
2022-10-05T08:42:16.016Z,5.30
2022-10-05T08:45:01.846Z,9.53
2022-10-05T08:47:47.111Z,6.03
2022-10-05T08:50:34.023Z,5.82
2022-10-05T08:53:19.644Z,9.35
2022-10-05T08:56:04.901Z,11.05
2022-10-05T08:58:52.021Z,5.95
2022-10-05T09:01:26.624Z,6.43
2022-10-05T09:04:21.717Z,5.72
2022-10-05T09:07:26.671Z,9.55
2022-10-05T09:10:20.502Z,9.82
2022-10-05T09:13:09.212Z,10.23
2022-10-05T09:16:13.790Z,7.13
2022-10-05T09:19:17.547Z,5.78
2022-10-05T09:22:15.771Z,10.40
2022-10-05T09:24:55.128Z,5.40
2022-10-05T09:27:43.478Z,5.63
2022-10-05T09:30:22.194Z,6.22
2022-10-05T09:33:27.005Z,8.98
2022-10-05T09:36:12.713Z,5.88
2022-10-05T09:38:39.414Z,8.45
2022-10-05T09:41:40.101Z,5.45
2022-10-05T09:44:31.864Z,5.22
2022-10-05T09:47:36.020Z,7.78
2022-10-05T09:50:37.798Z,6.85
2022-10-05T09:53:40.462Z,5.90
2022-10-05T09:56:38.564Z,7.53
2022-10-05T09:59:36.103Z,5.47
2022-10-05T10:02:14.373Z,6.15
2022-10-05T10:05:08.919Z,3.97
2022-10-05T10:07:56.613Z,5.60
2022-10-05T10:10:44.481Z,4.55
2022-10-05T10:13:32.848Z,5.68
2022-10-05T10:16:10.629Z,9.18
2022-10-05T10:18:56.450Z,4.93
2022-10-05T10:21:50.640Z,5.35
2022-10-05T10:24:36.215Z,7.15
2022-10-05T10:27:37.397Z,5.05
2022-10-05T10:30:36.512Z,5.17
2022-10-05T10:33:31.092Z,6.15
2022-10-05T10:36:33.704Z,7.13
2022-10-05T10:39:04.685Z,4.90
2022-10-05T10:42:03.935Z,4.75
2022-10-05T10:44:49.337Z,4.97
2022-10-05T10:47:38.145Z,5.10
2022-10-05T10:50:24.106Z,5.80
2022-10-05T10:53:05.759Z,3.60
2022-10-05T10:58:17.247Z,7.10
2022-10-05T11:01:04.185Z,3.90
2022-10-05T11:04:00.341Z,6.10
2022-10-05T11:07:08.852Z,4.60
2022-10-05T11:09:53.596Z,5.95
2022-10-05T11:12:39.753Z,3.80
2022-10-05T11:15:46.950Z,4.30
2022-10-05T11:18:41.390Z,6.88
2022-10-05T11:21:36.499Z,6.97
2022-10-05T11:24:24.937Z,5.05
2022-10-05T11:27:09.767Z,5.72
2022-10-05T11:30:14.983Z,5.38
2022-10-05T11:32:53.785Z,6.10
2022-10-05T11:35:38.941Z,7.28
2022-10-05T11:38:16.046Z,4.35
2022-10-05T11:40:59.062Z,11.15
2022-10-05T11:43:36.389Z,7.63
2022-10-05T11:46:34.097Z,6.43
2022-10-05T11:49:25.753Z,8.07
2022-10-05T11:52:04.292Z,5.32
2022-10-05T11:55:15.913Z,6.03
2022-10-05T11:58:07.468Z,13.20
2022-10-05T12:00:42.411Z,5.13
2022-10-05T12:03:21.151Z,4.30
2022-10-05T12:06:21.892Z,4.13
2022-10-05T12:09:26.261Z,4.65
2022-10-05T12:12:27.070Z,5.70
2022-10-05T12:15:11.837Z,4.00
2022-10-05T12:17:51.423Z,3.92
2022-10-05T12:20:42.674Z,8.25
2022-10-05T12:23:34.556Z,5.30
2022-10-05T12:28:54.137Z,3.88
2022-10-05T12:31:40.045Z,6.68
2022-10-05T12:34:40.692Z,5.25
2022-10-05T12:37:42.916Z,5.15
2022-10-05T12:40:32.300Z,5.47
2022-10-05T12:43:11.950Z,3.15
2022-10-05T12:46:12.736Z,4.22
2022-10-05T12:49:13.853Z,3.95
2022-10-05T12:52:01.412Z,3.07
2022-10-05T12:55:10.125Z,3.53
2022-10-05T12:57:58.468Z,3.50
2022-10-05T13:00:25.380Z,5.63
2022-10-05T13:03:01.715Z,6.00
2022-10-05T13:06:03.990Z,3.60
2022-10-05T13:08:45.170Z,4.00
2022-10-05T13:11:32.412Z,2.25
2022-10-05T13:14:17.770Z,5.53
2022-10-05T13:16:59.529Z,4.93
2022-10-05T13:19:39.088Z,4.95
2022-10-05T13:22:23.564Z,5.75
2022-10-05T13:25:07.755Z,4.13
2022-10-05T13:27:38.988Z,3.38
2022-10-05T13:30:06.378Z,3.70
2022-10-05T13:32:47.960Z,5.60
2022-10-05T13:38:01.594Z,6.60
2022-10-05T13:40:34.020Z,7.65
2022-10-05T13:43:06.615Z,4.70
2022-10-05T13:45:52.663Z,6.35
2022-10-05T13:48:54.313Z,4.43
2022-10-05T13:51:56.383Z,5.38
2022-10-05T13:54:28.735Z,3.42
2022-10-05T13:57:05.934Z,2.92
2022-10-05T13:59:51.149Z,7.38
2022-10-05T14:02:22.300Z,4.43
2022-10-05T14:05:00.999Z,5.47
2022-10-05T14:07:38.306Z,6.53
2022-10-05T14:10:13.717Z,5.47
2022-10-05T14:12:43.403Z,4.30
2022-10-05T14:15:28.828Z,7.78
2022-10-05T14:17:55.710Z,3.75
2022-10-05T14:20:31.389Z,3.70
2022-10-05T14:23:05.840Z,5.35
2022-10-05T14:25:50.073Z,5.28
2022-10-05T14:28:29.681Z,5.30
2022-10-05T14:31:27.558Z,7.32
2022-10-05T14:33:54.278Z,6.00
2022-10-05T14:36:43.912Z,8.32
2022-10-05T14:39:14.023Z,5.32
2022-10-05T14:41:50.484Z,6.70
2022-10-05T14:47:12.037Z,4.82
2022-10-05T14:50:15.905Z,4.07
2022-10-05T14:53:10.121Z,5.55
2022-10-05T14:55:55.977Z,6.20
2022-10-05T14:58:31.904Z,4.13
2022-10-05T15:01:36.443Z,3.53
2022-10-05T15:04:22.060Z,7.18
2022-10-05T15:07:04.343Z,7.35
2022-10-05T15:09:40.803Z,4.32
2022-10-05T15:12:08.491Z,8.15
2022-10-05T15:14:39.999Z,3.42
2022-10-05T15:20:00.201Z,4.63
2022-10-05T15:22:31.707Z,4.75
2022-10-05T15:28:16.142Z,7.93
2022-10-05T15:31:00.155Z,5.95
2022-10-05T15:33:46.211Z,4.97
2022-10-05T15:36:35.398Z,5.55
2022-10-05T15:39:20.853Z,7.80
2022-10-05T15:42:02.346Z,6.10
2022-10-05T15:44:58.422Z,7.38
2022-10-05T15:47:28.105Z,7.80
2022-10-05T15:50:26.160Z,5.93
2022-10-05T15:53:10.119Z,6.57
2022-10-05T15:55:59.742Z,7.95
2022-10-05T15:58:56.825Z,7.45
2022-10-05T16:01:32.655Z,8.60
2022-10-05T16:04:23.008Z,6.20
2022-10-05T16:07:18.476Z,7.18
2022-10-05T16:10:17.043Z,7.65
2022-10-05T16:13:05.427Z,8.93
2022-10-05T16:15:49.997Z,6.53
2022-10-05T16:18:35.361Z,5.25
2022-10-05T16:21:31.372Z,10.18
2022-10-05T16:24:09.135Z,12.30
2022-10-05T16:27:03.613Z,6.82
2022-10-05T16:29:45.732Z,3.92
2022-10-05T16:32:16.250Z,7.47
2022-10-05T16:35:14.436Z,4.50
2022-10-05T16:37:41.324Z,7.38
2022-10-05T16:40:29.776Z,7.30
2022-10-05T16:43:14.606Z,8.23
2022-10-05T16:46:01.388Z,6.43
2022-10-05T16:48:46.744Z,5.63
2022-10-05T16:51:24.069Z,10.18
2022-10-05T16:54:03.916Z,7.45
2022-10-05T16:56:42.634Z,3.95
2022-10-05T16:59:46.787Z,3.50
2022-10-05T17:02:22.971Z,7.93
2022-10-05T17:05:11.474Z,8.40
2022-10-05T17:08:08.006Z,4.38
2022-10-05T17:10:59.592Z,6.03
2022-10-05T17:14:07.248Z,6.80
2022-10-05T17:16:55.708Z,7.28
2022-10-05T17:19:46.537Z,6.43
2022-10-05T17:22:39.689Z,3.65
2022-10-05T17:25:42.827Z,5.93
2022-10-05T17:28:15.736Z,5.40
2022-10-05T17:31:02.652Z,4.60
2022-10-05T17:33:31.095Z,6.40
2022-10-05T17:36:04.670Z,8.02
2022-10-05T17:38:31.429Z,7.45
2022-10-05T17:41:01.517Z,8.15
2022-10-05T17:43:32.560Z,5.47
2022-10-05T17:46:05.624Z,6.20
2022-10-05T17:49:06.541Z,6.03
2022-10-05T17:51:51.817Z,7.07
2022-10-05T17:54:38.591Z,6.03
2022-10-05T17:57:05.173Z,6.88
2022-10-05T17:59:56.811Z,4.82
2022-10-05T18:02:36.194Z,6.00
2022-10-05T18:05:12.561Z,8.25
2022-10-05T18:07:40.923Z,7.82
2022-10-05T18:10:13.340Z,6.80
2022-10-05T18:12:45.442Z,6.95
2022-10-05T18:15:24.452Z,6.13
2022-10-05T18:18:32.047Z,4.97
2022-10-05T18:21:18.317Z,5.32
2022-10-05T18:24:01.823Z,4.03
2022-10-05T18:26:49.496Z,15.05
2022-10-05T18:29:36.042Z,8.25
2022-10-05T18:32:14.244Z,7.47
2022-10-05T18:35:01.987Z,5.60
2022-10-05T18:38:22.097Z,7.10
2022-10-05T18:41:05.347Z,6.35
2022-10-05T18:43:38.849Z,4.63
2022-10-05T18:46:42.114Z,5.78
2022-10-05T18:49:31.637Z,7.40
2022-10-05T18:52:22.323Z,7.20
2022-10-05T18:55:05.426Z,5.45
2022-10-05T18:57:41.208Z,9.02
2022-10-05T19:00:18.638Z,6.65
2022-10-05T19:02:53.333Z,7.65
2022-10-05T19:05:48.477Z,6.90
2022-10-05T19:08:20.559Z,7.82
2022-10-05T19:11:15.289Z,6.43
2022-10-05T19:13:59.268Z,5.75
2022-10-05T19:16:44.489Z,8.50
2022-10-05T19:19:45.647Z,5.22
2022-10-05T19:22:53.767Z,7.10
2022-10-05T19:25:36.962Z,9.00
2022-10-05T19:28:20.439Z,6.40
2022-10-05T19:31:09.976Z,6.65
2022-10-05T19:34:16.510Z,5.53
2022-10-05T19:37:18.459Z,4.88
2022-10-05T19:42:37.055Z,5.93
2022-10-05T19:45:27.087Z,6.85
2022-10-05T19:48:01.769Z,6.78
2022-10-05T19:50:32.797Z,9.80
2022-10-05T19:53:24.098Z,4.80
2022-10-05T19:55:50.854Z,5.35
2022-10-05T19:58:29.461Z,5.03
2022-10-05T20:00:57.918Z,7.43
2022-10-05T20:03:37.860Z,4.80
2022-10-05T20:06:07.397Z,5.65
2022-10-05T20:08:43.712Z,5.43
2022-10-05T20:11:18.856Z,7.30
2022-10-05T20:14:13.593Z,8.27
2022-10-05T20:17:09.356Z,7.05
2022-10-05T20:19:57.205Z,7.82
2022-10-05T20:22:46.155Z,9.00
2022-10-05T20:25:18.672Z,7.55
2022-10-05T20:27:55.697Z,7.53
2022-10-05T20:30:27.462Z,8.13
2022-10-05T20:32:58.075Z,8.40
2022-10-05T20:35:27.698Z,7.28
2022-10-05T20:37:59.202Z,5.82
2022-10-05T20:40:28.870Z,10.25
2022-10-05T20:42:56.378Z,9.85
2022-10-05T20:45:23.071Z,6.40
2022-10-05T20:47:50.614Z,9.70
2022-10-05T20:50:17.389Z,5.65
2022-10-05T20:52:44.107Z,7.18
2022-10-05T20:55:11.559Z,4.13
2022-10-05T20:57:41.809Z,8.98
2022-10-05T21:00:10.436Z,5.55
2022-10-05T21:02:37.991Z,12.45
2022-10-05T21:05:05.207Z,6.60
2022-10-05T21:07:34.043Z,8.02
2022-10-05T21:10:02.251Z,14.02
2022-10-05T21:12:28.982Z,7.97
2022-10-05T21:14:55.745Z,4.05
2022-10-05T21:17:22.364Z,3.47
2022-10-05T21:19:49.043Z,5.70
2022-10-05T21:22:15.771Z,7.68
2022-10-05T21:24:42.387Z,3.95
2022-10-05T21:27:10.051Z,4.47
2022-10-05T21:29:36.979Z,5.80
2022-10-05T21:32:08.199Z,4.47
2022-10-05T21:34:35.001Z,5.10
2022-10-05T21:37:01.699Z,9.55
2022-10-05T21:39:28.378Z,4.95
2022-10-05T21:41:55.148Z,6.38
2022-10-05T21:44:21.865Z,3.17
2022-10-05T21:46:49.076Z,6.10
2022-10-05T21:49:18.909Z,3.05
2022-10-05T21:51:47.152Z,5.38
2022-10-05T21:54:17.357Z,7.40
2022-10-05T21:56:48.349Z,10.63
2022-10-05T21:59:18.656Z,4.45
2022-10-05T22:01:45.859Z,4.25
2022-10-05T22:04:12.673Z,2.58
2022-10-05T22:06:39.438Z,5.20
2022-10-05T22:09:06.207Z,2.15
2022-10-05T22:11:33.183Z,3.08
2022-10-05T22:14:02.904Z,5.20
2022-10-05T22:16:32.931Z,6.05
2022-10-05T22:19:03.583Z,3.60
2022-10-05T22:21:30.713Z,6.25
2022-10-05T22:23:57.430Z,4.13
2022-10-05T22:26:24.598Z,6.22
2022-10-05T22:28:54.961Z,10.63
2022-10-05T22:31:21.926Z,6.28
2022-10-05T22:33:48.843Z,10.98
2022-10-05T22:36:15.851Z,4.15
2022-10-05T22:38:42.458Z,3.40
2022-10-05T22:41:13.977Z,3.20
2022-10-05T22:43:40.670Z,2.88
2022-10-05T22:46:09.135Z,2.72
2022-10-05T22:48:35.833Z,4.25
2022-10-05T22:51:02.726Z,2.47
2022-10-05T22:53:29.346Z,1.40
2022-10-05T22:55:56.014Z,5.03
2022-10-05T22:58:22.832Z,4.82
2022-10-05T23:01:04.739Z,3.47
2022-10-05T23:03:32.618Z,4.93
2022-10-05T23:06:05.439Z,6.75
2022-10-05T23:08:33.837Z,10.95
2022-10-05T23:11:11.812Z,4.90
2022-10-05T23:13:38.716Z,2.45
2022-10-05T23:16:08.030Z,5.75
2022-10-05T23:18:35.216Z,6.43
2022-10-05T23:21:02.460Z,5.70
2022-10-05T23:23:29.091Z,5.70
2022-10-05T23:26:02.486Z,5.10
2022-10-05T23:28:29.930Z,5.68
2022-10-05T23:31:01.389Z,8.95
2022-10-05T23:33:28.629Z,3.35
2022-10-05T23:36:03.353Z,4.40
2022-10-05T23:38:30.489Z,4.43
2022-10-05T23:41:00.628Z,4.35
2022-10-05T23:43:27.618Z,4.47
2022-10-05T23:45:55.280Z,3.53
2022-10-05T23:48:22.674Z,2.47
2022-10-05T23:50:49.710Z,5.82
2022-10-05T23:53:17.466Z,4.15
2022-10-05T23:55:44.624Z,5.85
2022-10-05T23:58:12.242Z,5.68
